sensor_id;sensor_type;location;lat;lon;timestamp;P1;durP1;ratioP1;P2;durP2;ratioP2
31298;SDS011;17927;52.350;13.402;2024-03-23T00:53:22;11.32;;;2.30;;
31298;SDS011;17927;52.350;13.402;2024-03-23T00:55:47;13.52;;;2.30;;
31298;SDS011;17927;52.350;13.402;2024-03-23T00:58:12;13.02;;;2.33;;
31298;SDS011;17927;52.350;13.402;2024-03-23T01:00:38;14.38;;;2.60;;
31298;SDS011;17927;52.350;13.402;2024-03-23T01:03:03;9.23;;;2.10;;
31298;SDS011;17927;52.350;13.402;2024-03-23T01:05:28;9.60;;;2.25;;
31298;SDS011;17927;52.350;13.402;2024-03-23T01:07:54;9.30;;;2.70;;
31298;SDS011;17927;52.350;13.402;2024-03-23T01:10:19;9.70;;;2.03;;
31298;SDS011;17927;52.350;13.402;2024-03-23T01:12:44;11.38;;;2.45;;
31298;SDS011;17927;52.350;13.402;2024-03-23T01:15:10;6.22;;;2.08;;
31298;SDS011;17927;52.350;13.402;2024-03-23T01:17:35;11.70;;;2.70;;
31298;SDS011;17927;52.350;13.402;2024-03-23T01:20:00;8.48;;;2.63;;
31298;SDS011;17927;52.350;13.402;2024-03-23T01:22:26;12.13;;;2.35;;
31298;SDS011;17927;52.350;13.402;2024-03-23T01:24:51;12.02;;;2.58;;
31298;SDS011;17927;52.350;13.402;2024-03-23T01:27:16;8.85;;;1.92;;
31298;SDS011;17927;52.350;13.402;2024-03-23T01:29:41;15.48;;;2.42;;
31298;SDS011;17927;52.350;13.402;2024-03-23T01:32:07;11.40;;;2.85;;
31298;SDS011;17927;52.350;13.402;2024-03-23T01:34:32;10.88;;;2.33;;
31298;SDS011;17927;52.350;13.402;2024-03-23T01:36:57;8.80;;;2.03;;
31298;SDS011;17927;52.350;13.402;2024-03-23T01:39:23;10.73;;;2.90;;
31298;SDS011;17927;52.350;13.402;2024-03-23T01:41:48;9.25;;;2.25;;
31298;SDS011;17927;52.350;13.402;2024-03-23T01:44:14;10.07;;;1.80;;
31298;SDS011;17927;52.350;13.402;2024-03-23T01:46:40;11.32;;;2.15;;
31298;SDS011;17927;52.350;13.402;2024-03-23T01:49:07;14.80;;;2.40;;
31298;SDS011;17927;52.350;13.402;2024-03-23T01:51:32;15.50;;;2.42;;
31298;SDS011;17927;52.350;13.402;2024-03-23T01:53:58;10.98;;;2.17;;
31298;SDS011;17927;52.350;13.402;2024-03-23T01:56:37;11.07;;;2.72;;
31298;SDS011;17927;52.350;13.402;2024-03-23T01:59:02;9.60;;;2.28;;
31298;SDS011;17927;52.350;13.402;2024-03-23T02:01:28;7.72;;;2.22;;
31298;SDS011;17927;52.350;13.402;2024-03-23T02:03:54;10.82;;;2.55;;
31298;SDS011;17927;52.350;13.402;2024-03-23T02:06:19;9.70;;;2.20;;
31298;SDS011;17927;52.350;13.402;2024-03-23T02:08:44;12.05;;;2.33;;
31298;SDS011;17927;52.350;13.402;2024-03-23T02:11:09;11.07;;;2.28;;
31298;SDS011;17927;52.350;13.402;2024-03-23T02:13:35;11.55;;;2.30;;
31298;SDS011;17927;52.350;13.402;2024-03-23T02:16:00;16.98;;;2.42;;
31298;SDS011;17927;52.350;13.402;2024-03-23T02:18:25;9.02;;;2.33;;
31298;SDS011;17927;52.350;13.402;2024-03-23T02:20:50;11.10;;;2.70;;
31298;SDS011;17927;52.350;13.402;2024-03-23T02:23:16;9.55;;;2.20;;
31298;SDS011;17927;52.350;13.402;2024-03-23T02:25:45;8.00;;;2.45;;
31298;SDS011;17927;52.350;13.402;2024-03-23T02:28:10;11.60;;;2.80;;
31298;SDS011;17927;52.350;13.402;2024-03-23T02:30:36;9.15;;;2.78;;
31298;SDS011;17927;52.350;13.402;2024-03-23T02:33:02;12.25;;;2.58;;
31298;SDS011;17927;52.350;13.402;2024-03-23T02:35:28;7.95;;;2.45;;
31298;SDS011;17927;52.350;13.402;2024-03-23T02:37:53;11.90;;;2.92;;
31298;SDS011;17927;52.350;13.402;2024-03-23T02:40:19;11.43;;;2.22;;
31298;SDS011;17927;52.350;13.402;2024-03-23T02:42:45;14.57;;;3.40;;
31298;SDS011;17927;52.350;13.402;2024-03-23T02:45:11;8.80;;;2.10;;
31298;SDS011;17927;52.350;13.402;2024-03-23T02:47:36;7.65;;;2.10;;
31298;SDS011;17927;52.350;13.402;2024-03-23T02:50:01;9.00;;;2.30;;
31298;SDS011;17927;52.350;13.402;2024-03-23T02:52:26;14.02;;;2.35;;
31298;SDS011;17927;52.350;13.402;2024-03-23T02:54:52;10.88;;;2.40;;
31298;SDS011;17927;52.350;13.402;2024-03-23T02:57:17;9.82;;;2.20;;
31298;SDS011;17927;52.350;13.402;2024-03-23T02:59:42;16.35;;;2.50;;
31298;SDS011;17927;52.350;13.402;2024-03-23T03:02:07;14.35;;;2.40;;
31298;SDS011;17927;52.350;13.402;2024-03-23T03:04:33;10.93;;;2.30;;
31298;SDS011;17927;52.350;13.402;2024-03-23T03:06:58;8.75;;;1.85;;
31298;SDS011;17927;52.350;13.402;2024-03-23T03:09:23;16.23;;;3.03;;
31298;SDS011;17927;52.350;13.402;2024-03-23T03:11:48;16.60;;;3.67;;
31298;SDS011;17927;52.350;13.402;2024-03-23T03:14:14;10.68;;;1.98;;
31298;SDS011;17927;52.350;13.402;2024-03-23T03:16:39;9.60;;;2.05;;
31298;SDS011;17927;52.350;13.402;2024-03-23T03:19:04;5.97;;;1.67;;
31298;SDS011;17927;52.350;13.402;2024-03-23T03:21:31;13.18;;;2.28;;
31298;SDS011;17927;52.350;13.402;2024-03-23T03:23:57;6.03;;;1.77;;
31298;SDS011;17927;52.350;13.402;2024-03-23T03:26:22;12.10;;;2.30;;
31298;SDS011;17927;52.350;13.402;2024-03-23T03:28:48;12.25;;;2.65;;
31298;SDS011;17927;52.350;13.402;2024-03-23T03:31:17;10.35;;;2.10;;
31298;SDS011;17927;52.350;13.402;2024-03-23T03:33:43;12.55;;;2.38;;
31298;SDS011;17927;52.350;13.402;2024-03-23T03:36:09;9.32;;;2.00;;
31298;SDS011;17927;52.350;13.402;2024-03-23T03:38:34;6.65;;;1.85;;
31298;SDS011;17927;52.350;13.402;2024-03-23T03:41:00;11.63;;;2.55;;
31298;SDS011;17927;52.350;13.402;2024-03-23T03:43:26;8.60;;;2.10;;
31298;SDS011;17927;52.350;13.402;2024-03-23T03:45:52;10.38;;;1.95;;
31298;SDS011;17927;52.350;13.402;2024-03-23T03:48:17;11.77;;;2.13;;
31298;SDS011;17927;52.350;13.402;2024-03-23T03:50:43;15.20;;;2.70;;
31298;SDS011;17927;52.350;13.402;2024-03-23T03:53:08;11.50;;;2.40;;
31298;SDS011;17927;52.350;13.402;2024-03-23T03:55:33;13.93;;;2.15;;
31298;SDS011;17927;52.350;13.402;2024-03-23T03:57:58;12.05;;;2.47;;
31298;SDS011;17927;52.350;13.402;2024-03-23T04:00:24;13.75;;;2.83;;
31298;SDS011;17927;52.350;13.402;2024-03-23T04:02:49;9.75;;;2.25;;
31298;SDS011;17927;52.350;13.402;2024-03-23T04:05:14;15.27;;;2.85;;
31298;SDS011;17927;52.350;13.402;2024-03-23T04:07:39;11.00;;;2.90;;
31298;SDS011;17927;52.350;13.402;2024-03-23T04:10:05;16.02;;;2.90;;
31298;SDS011;17927;52.350;13.402;2024-03-23T04:12:32;13.35;;;3.08;;
31298;SDS011;17927;52.350;13.402;2024-03-23T04:14:58;15.43;;;3.80;;
31298;SDS011;17927;52.350;13.402;2024-03-23T04:17:23;10.60;;;2.47;;
31298;SDS011;17927;52.350;13.402;2024-03-23T04:19:50;10.50;;;2.20;;
31298;SDS011;17927;52.350;13.402;2024-03-23T04:22:15;9.93;;;3.33;;
31298;SDS011;17927;52.350;13.402;2024-03-23T04:24:41;10.35;;;2.55;;
31298;SDS011;17927;52.350;13.402;2024-03-23T04:27:07;8.48;;;2.40;;
31298;SDS011;17927;52.350;13.402;2024-03-23T04:29:32;15.98;;;2.63;;
31298;SDS011;17927;52.350;13.402;2024-03-23T04:31:57;10.90;;;2.30;;
31298;SDS011;17927;52.350;13.402;2024-03-23T04:34:22;10.98;;;2.83;;
31298;SDS011;17927;52.350;13.402;2024-03-23T04:36:48;9.35;;;2.20;;
31298;SDS011;17927;52.350;13.402;2024-03-23T04:39:13;10.25;;;2.67;;
31298;SDS011;17927;52.350;13.402;2024-03-23T04:41:38;8.75;;;3.35;;
31298;SDS011;17927;52.350;13.402;2024-03-23T04:44:04;8.07;;;2.20;;
31298;SDS011;17927;52.350;13.402;2024-03-23T04:46:29;8.10;;;2.83;;
31298;SDS011;17927;52.350;13.402;2024-03-23T04:48:54;8.02;;;2.95;;
31298;SDS011;17927;52.350;13.402;2024-03-23T04:51:22;6.70;;;1.58;;
31298;SDS011;17927;52.350;13.402;2024-03-23T04:53:48;7.45;;;1.83;;
31298;SDS011;17927;52.350;13.402;2024-03-23T04:56:14;9.07;;;2.53;;
31298;SDS011;17927;52.350;13.402;2024-03-23T04:58:40;5.10;;;1.48;;
31298;SDS011;17927;52.350;13.402;2024-03-23T05:01:05;5.38;;;1.50;;
31298;SDS011;17927;52.350;13.402;2024-03-23T05:03:30;7.93;;;1.67;;
31298;SDS011;17927;52.350;13.402;2024-03-23T05:05:55;8.15;;;1.67;;
31298;SDS011;17927;52.350;13.402;2024-03-23T05:08:21;4.97;;;1.40;;
31298;SDS011;17927;52.350;13.402;2024-03-23T05:10:46;5.55;;;1.58;;
31298;SDS011;17927;52.350;13.402;2024-03-23T05:13:11;9.15;;;1.60;;
31298;SDS011;17927;52.350;13.402;2024-03-23T05:15:37;9.70;;;1.65;;
31298;SDS011;17927;52.350;13.402;2024-03-23T05:18:02;8.55;;;2.03;;
31298;SDS011;17927;52.350;13.402;2024-03-23T05:20:28;4.80;;;1.23;;
31298;SDS011;17927;52.350;13.402;2024-03-23T05:22:54;6.93;;;1.83;;
31298;SDS011;17927;52.350;13.402;2024-03-23T05:25:20;6.55;;;1.70;;
31298;SDS011;17927;52.350;13.402;2024-03-23T05:27:45;4.10;;;1.60;;
31298;SDS011;17927;52.350;13.402;2024-03-23T05:30:10;6.65;;;1.48;;
31298;SDS011;17927;52.350;13.402;2024-03-23T05:32:36;11.55;;;1.55;;
31298;SDS011;17927;52.350;13.402;2024-03-23T05:35:01;5.38;;;1.63;;
31298;SDS011;17927;52.350;13.402;2024-03-23T05:37:26;9.40;;;1.90;;
31298;SDS011;17927;52.350;13.402;2024-03-23T05:39:51;7.82;;;1.77;;
31298;SDS011;17927;52.350;13.402;2024-03-23T05:42:17;4.82;;;1.65;;
31298;SDS011;17927;52.350;13.402;2024-03-23T05:44:43;8.20;;;3.75;;
31298;SDS011;17927;52.350;13.402;2024-03-23T05:47:10;9.32;;;1.90;;
31298;SDS011;17927;52.350;13.402;2024-03-23T05:49:35;4.47;;;1.73;;
31298;SDS011;17927;52.350;13.402;2024-03-23T05:52:00;3.35;;;1.70;;
31298;SDS011;17927;52.350;13.402;2024-03-23T05:54:28;12.45;;;1.95;;
31298;SDS011;17927;52.350;13.402;2024-03-23T05:56:56;7.40;;;2.10;;
31298;SDS011;17927;52.350;13.402;2024-03-23T05:59:22;6.72;;;2.08;;
31298;SDS011;17927;52.350;13.402;2024-03-23T06:01:47;3.40;;;1.60;;
31298;SDS011;17927;52.350;13.402;2024-03-23T06:04:12;9.25;;;5.50;;
31298;SDS011;17927;52.350;13.402;2024-03-23T06:06:38;9.02;;;4.60;;
31298;SDS011;17927;52.350;13.402;2024-03-23T06:09:04;13.90;;;7.07;;
31298;SDS011;17927;52.350;13.402;2024-03-23T06:11:29;13.20;;;6.40;;
31298;SDS011;17927;52.350;13.402;2024-03-23T06:13:55;11.32;;;4.45;;
31298;SDS011;17927;52.350;13.402;2024-03-23T06:16:20;9.75;;;3.72;;
31298;SDS011;17927;52.350;13.402;2024-03-23T06:18:48;14.30;;;5.43;;
31298;SDS011;17927;52.350;13.402;2024-03-23T06:21:14;11.38;;;6.18;;
31298;SDS011;17927;52.350;13.402;2024-03-23T06:23:40;11.07;;;5.13;;
31298;SDS011;17927;52.350;13.402;2024-03-23T06:26:06;10.52;;;4.40;;
31298;SDS011;17927;52.350;13.402;2024-03-23T06:28:31;8.10;;;3.33;;
31298;SDS011;17927;52.350;13.402;2024-03-23T06:30:56;9.20;;;3.75;;
31298;SDS011;17927;52.350;13.402;2024-03-23T06:33:21;9.00;;;3.53;;
31298;SDS011;17927;52.350;13.402;2024-03-23T06:35:50;10.75;;;3.85;;
31298;SDS011;17927;52.350;13.402;2024-03-23T06:38:17;8.60;;;3.05;;
31298;SDS011;17927;52.350;13.402;2024-03-23T06:40:42;9.25;;;2.95;;
31298;SDS011;17927;52.350;13.402;2024-03-23T06:43:07;7.13;;;2.90;;
31298;SDS011;17927;52.350;13.402;2024-03-23T06:45:33;10.45;;;3.35;;
31298;SDS011;17927;52.350;13.402;2024-03-23T06:47:59;3.97;;;1.98;;
31298;SDS011;17927;52.350;13.402;2024-03-23T06:50:24;6.20;;;2.10;;
31298;SDS011;17927;52.350;13.402;2024-03-23T06:52:50;7.97;;;1.92;;
31298;SDS011;17927;52.350;13.402;2024-03-23T06:55:15;9.10;;;2.10;;
31298;SDS011;17927;52.350;13.402;2024-03-23T06:57:40;3.67;;;1.50;;
31298;SDS011;17927;52.350;13.402;2024-03-23T07:00:06;5.25;;;1.75;;
31298;SDS011;17927;52.350;13.402;2024-03-23T07:02:35;6.43;;;2.03;;
31298;SDS011;17927;52.350;13.402;2024-03-23T07:05:00;9.10;;;2.00;;
31298;SDS011;17927;52.350;13.402;2024-03-23T07:07:25;7.05;;;1.88;;
31298;SDS011;17927;52.350;13.402;2024-03-23T07:09:52;6.70;;;1.50;;
31298;SDS011;17927;52.350;13.402;2024-03-23T07:12:17;5.70;;;1.55;;
31298;SDS011;17927;52.350;13.402;2024-03-23T07:14:42;8.50;;;2.05;;
31298;SDS011;17927;52.350;13.402;2024-03-23T07:17:08;6.70;;;2.20;;
31298;SDS011;17927;52.350;13.402;2024-03-23T07:19:33;9.27;;;2.17;;
31298;SDS011;17927;52.350;13.402;2024-03-23T07:21:58;6.05;;;1.60;;
31298;SDS011;17927;52.350;13.402;2024-03-23T07:24:23;8.77;;;1.85;;
31298;SDS011;17927;52.350;13.402;2024-03-23T07:26:49;7.15;;;1.67;;
31298;SDS011;17927;52.350;13.402;2024-03-23T07:29:16;5.38;;;1.40;;
31298;SDS011;17927;52.350;13.402;2024-03-23T07:31:41;6.47;;;1.52;;
31298;SDS011;17927;52.350;13.402;2024-03-23T07:34:06;5.97;;;1.80;;
31298;SDS011;17927;52.350;13.402;2024-03-23T07:36:31;3.92;;;1.42;;
31298;SDS011;17927;52.350;13.402;2024-03-23T07:38:57;6.97;;;1.75;;
31298;SDS011;17927;52.350;13.402;2024-03-23T07:41:22;5.63;;;1.55;;
31298;SDS011;17927;52.350;13.402;2024-03-23T07:43:48;5.70;;;1.55;;
31298;SDS011;17927;52.350;13.402;2024-03-23T07:46:14;4.80;;;1.48;;
31298;SDS011;17927;52.350;13.402;2024-03-23T07:48:40;6.22;;;1.63;;
31298;SDS011;17927;52.350;13.402;2024-03-23T07:51:10;3.50;;;1.30;;
31298;SDS011;17927;52.350;13.402;2024-03-23T07:53:37;5.43;;;1.67;;
31298;SDS011;17927;52.350;13.402;2024-03-23T07:58:35;6.03;;;1.60;;
31298;SDS011;17927;52.350;13.402;2024-03-23T08:01:04;5.95;;;1.83;;
31298;SDS011;17927;52.350;13.402;2024-03-23T08:03:37;4.05;;;1.67;;
31298;SDS011;17927;52.350;13.402;2024-03-23T08:06:06;4.13;;;1.60;;
31298;SDS011;17927;52.350;13.402;2024-03-23T08:08:38;5.30;;;2.00;;
31298;SDS011;17927;52.350;13.402;2024-03-23T08:11:05;4.75;;;2.17;;
31298;SDS011;17927;52.350;13.402;2024-03-23T08:13:31;9.00;;;1.90;;
31298;SDS011;17927;52.350;13.402;2024-03-23T08:16:00;5.00;;;2.00;;
31298;SDS011;17927;52.350;13.402;2024-03-23T08:18:26;6.20;;;2.08;;
31298;SDS011;17927;52.350;13.402;2024-03-23T08:20:55;6.82;;;1.83;;
31298;SDS011;17927;52.350;13.402;2024-03-23T08:23:24;6.25;;;1.58;;
31298;SDS011;17927;52.350;13.402;2024-03-23T08:25:50;8.63;;;1.85;;
31298;SDS011;17927;52.350;13.402;2024-03-23T08:28:15;7.40;;;2.22;;
31298;SDS011;17927;52.350;13.402;2024-03-23T08:30:40;4.07;;;1.95;;
31298;SDS011;17927;52.350;13.402;2024-03-23T08:33:05;4.70;;;1.70;;
31298;SDS011;17927;52.350;13.402;2024-03-23T08:35:30;7.13;;;2.50;;
31298;SDS011;17927;52.350;13.402;2024-03-23T08:37:56;4.60;;;1.67;;
31298;SDS011;17927;52.350;13.402;2024-03-23T08:40:21;10.02;;;1.70;;
31298;SDS011;17927;52.350;13.402;2024-03-23T08:42:47;3.53;;;1.48;;
31298;SDS011;17927;52.350;13.402;2024-03-23T08:45:12;7.07;;;1.88;;
31298;SDS011;17927;52.350;13.402;2024-03-23T08:47:37;4.22;;;1.98;;
31298;SDS011;17927;52.350;13.402;2024-03-23T08:50:03;6.35;;;2.03;;
31298;SDS011;17927;52.350;13.402;2024-03-23T08:52:28;4.55;;;1.50;;
31298;SDS011;17927;52.350;13.402;2024-03-23T08:54:54;5.63;;;1.58;;
31298;SDS011;17927;52.350;13.402;2024-03-23T08:57:20;5.78;;;2.03;;
31298;SDS011;17927;52.350;13.402;2024-03-23T08:59:46;6.20;;;1.58;;
31298;SDS011;17927;52.350;13.402;2024-03-23T09:02:11;3.22;;;1.90;;
31298;SDS011;17927;52.350;13.402;2024-03-23T09:04:36;3.13;;;1.50;;
31298;SDS011;17927;52.350;13.402;2024-03-23T09:07:02;7.55;;;1.88;;
31298;SDS011;17927;52.350;13.402;2024-03-23T09:09:27;5.32;;;1.65;;
31298;SDS011;17927;52.350;13.402;2024-03-23T09:11:52;5.30;;;1.50;;
31298;SDS011;17927;52.350;13.402;2024-03-23T09:14:18;4.13;;;1.40;;
31298;SDS011;17927;52.350;13.402;2024-03-23T09:16:44;5.03;;;1.52;;
31298;SDS011;17927;52.350;13.402;2024-03-23T09:19:09;3.53;;;1.40;;
31298;SDS011;17927;52.350;13.402;2024-03-23T09:21:34;3.80;;;1.30;;
31298;SDS011;17927;52.350;13.402;2024-03-23T09:24:00;6.00;;;1.70;;
31298;SDS011;17927;52.350;13.402;2024-03-23T09:26:25;4.43;;;1.67;;
31298;SDS011;17927;52.350;13.402;2024-03-23T09:28:50;3.75;;;1.90;;
31298;SDS011;17927;52.350;13.402;2024-03-23T09:31:16;2.95;;;1.60;;
31298;SDS011;17927;52.350;13.402;2024-03-23T09:33:41;2.65;;;1.67;;
31298;SDS011;17927;52.350;13.402;2024-03-23T09:36:07;2.50;;;1.20;;
31298;SDS011;17927;52.350;13.402;2024-03-23T09:38:33;4.18;;;1.00;;
31298;SDS011;17927;52.350;13.402;2024-03-23T09:40:58;2.20;;;1.30;;
31298;SDS011;17927;52.350;13.402;2024-03-23T09:43:24;2.58;;;1.13;;
31298;SDS011;17927;52.350;13.402;2024-03-23T09:45:49;4.18;;;0.77;;
31298;SDS011;17927;52.350;13.402;2024-03-23T09:48:15;4.32;;;1.33;;
31298;SDS011;17927;52.350;13.402;2024-03-23T09:50:41;3.97;;;1.23;;
31298;SDS011;17927;52.350;13.402;2024-03-23T09:53:08;8.25;;;1.58;;
31298;SDS011;17927;52.350;13.402;2024-03-23T09:58:04;3.65;;;1.35;;
31298;SDS011;17927;52.350;13.402;2024-03-23T10:00:33;1.95;;;1.13;;
31298;SDS011;17927;52.350;13.402;2024-03-23T10:02:59;3.88;;;1.40;;
31298;SDS011;17927;52.350;13.402;2024-03-23T10:05:28;3.78;;;1.00;;
31298;SDS011;17927;52.350;13.402;2024-03-23T10:07:54;5.13;;;1.08;;
31298;SDS011;17927;52.350;13.402;2024-03-23T10:10:19;2.28;;;1.23;;
31298;SDS011;17927;52.350;13.402;2024-03-23T10:12:47;6.03;;;1.30;;
31298;SDS011;17927;52.350;13.402;2024-03-23T10:15:17;9.18;;;1.35;;
31298;SDS011;17927;52.350;13.402;2024-03-23T10:17:44;1.42;;;1.23;;
31298;SDS011;17927;52.350;13.402;2024-03-23T10:20:10;4.03;;;1.00;;
31298;SDS011;17927;52.350;13.402;2024-03-23T10:22:36;5.60;;;1.27;;
31298;SDS011;17927;52.350;13.402;2024-03-23T10:25:10;9.63;;;1.27;;
31298;SDS011;17927;52.350;13.402;2024-03-23T10:27:36;3.95;;;1.23;;
31298;SDS011;17927;52.350;13.402;2024-03-23T10:30:10;4.03;;;1.27;;
31298;SDS011;17927;52.350;13.402;2024-03-23T10:32:37;7.68;;;1.73;;
31298;SDS011;17927;52.350;13.402;2024-03-23T10:35:19;4.10;;;1.75;;
31298;SDS011;17927;52.350;13.402;2024-03-23T10:37:48;2.28;;;0.90;;
31298;SDS011;17927;52.350;13.402;2024-03-23T10:40:17;2.55;;;1.10;;
31298;SDS011;17927;52.350;13.402;2024-03-23T10:42:45;5.38;;;1.42;;
31298;SDS011;17927;52.350;13.402;2024-03-23T10:45:11;3.47;;;1.70;;
31298;SDS011;17927;52.350;13.402;2024-03-23T10:47:37;3.60;;;1.05;;
31298;SDS011;17927;52.350;13.402;2024-03-23T10:50:06;4.38;;;1.40;;
31298;SDS011;17927;52.350;13.402;2024-03-23T10:52:32;2.97;;;0.95;;
31298;SDS011;17927;52.350;13.402;2024-03-23T10:54:58;5.30;;;1.10;;
31298;SDS011;17927;52.350;13.402;2024-03-23T10:57:27;2.25;;;1.00;;
31298;SDS011;17927;52.350;13.402;2024-03-23T10:59:59;5.97;;;1.30;;
31298;SDS011;17927;52.350;13.402;2024-03-23T11:02:26;3.70;;;1.08;;
31298;SDS011;17927;52.350;13.402;2024-03-23T11:04:53;2.63;;;1.33;;
31298;SDS011;17927;52.350;13.402;2024-03-23T11:14:44;3.25;;;1.10;;
31298;SDS011;17927;52.350;13.402;2024-03-23T11:17:10;5.70;;;1.15;;
31298;SDS011;17927;52.350;13.402;2024-03-23T11:22:01;2.90;;;1.00;;
31298;SDS011;17927;52.350;13.402;2024-03-23T11:24:27;6.53;;;1.05;;
31298;SDS011;17927;52.350;13.402;2024-03-23T11:26:52;2.60;;;1.10;;
31298;SDS011;17927;52.350;13.402;2024-03-23T11:29:17;4.47;;;2.22;;
31298;SDS011;17927;52.350;13.402;2024-03-23T11:31:47;4.40;;;1.20;;
31298;SDS011;17927;52.350;13.402;2024-03-23T11:34:13;2.25;;;0.70;;
31298;SDS011;17927;52.350;13.402;2024-03-23T11:36:39;3.95;;;1.00;;
31298;SDS011;17927;52.350;13.402;2024-03-23T11:39:17;4.40;;;1.40;;
31298;SDS011;17927;52.350;13.402;2024-03-23T11:41:47;3.92;;;1.25;;
31298;SDS011;17927;52.350;13.402;2024-03-23T11:46:46;4.35;;;2.13;;
31298;SDS011;17927;52.350;13.402;2024-03-23T11:49:27;5.05;;;1.10;;
31298;SDS011;17927;52.350;13.402;2024-03-23T11:51:54;3.13;;;1.30;;
31298;SDS011;17927;52.350;13.402;2024-03-23T11:54:24;5.85;;;1.83;;
31298;SDS011;17927;52.350;13.402;2024-03-23T11:56:53;5.43;;;1.40;;
31298;SDS011;17927;52.350;13.402;2024-03-23T11:59:35;5.13;;;1.55;;
31298;SDS011;17927;52.350;13.402;2024-03-23T12:02:06;4.57;;;1.02;;
31298;SDS011;17927;52.350;13.402;2024-03-23T12:04:41;4.90;;;1.38;;
31298;SDS011;17927;52.350;13.402;2024-03-23T12:07:16;7.55;;;1.30;;
31298;SDS011;17927;52.350;13.402;2024-03-23T12:10:04;3.30;;;1.23;;
31298;SDS011;17927;52.350;13.402;2024-03-23T12:12:33;5.85;;;1.52;;
31298;SDS011;17927;52.350;13.402;2024-03-23T12:15:05;5.28;;;1.45;;
31298;SDS011;17927;52.350;13.402;2024-03-23T12:17:32;5.07;;;1.25;;
31298;SDS011;17927;52.350;13.402;2024-03-23T12:19:59;5.95;;;1.60;;
31298;SDS011;17927;52.350;13.402;2024-03-23T12:22:25;4.03;;;1.17;;
31298;SDS011;17927;52.350;13.402;2024-03-23T12:24:51;5.95;;;1.75;;
31298;SDS011;17927;52.350;13.402;2024-03-23T12:27:16;4.68;;;1.60;;
31298;SDS011;17927;52.350;13.402;2024-03-23T12:29:42;6.45;;;1.35;;
31298;SDS011;17927;52.350;13.402;2024-03-23T12:32:10;10.13;;;1.63;;
31298;SDS011;17927;52.350;13.402;2024-03-23T12:34:36;4.65;;;1.25;;
31298;SDS011;17927;52.350;13.402;2024-03-23T12:37:01;6.68;;;1.33;;
31298;SDS011;17927;52.350;13.402;2024-03-23T12:39:26;5.72;;;1.23;;
31298;SDS011;17927;52.350;13.402;2024-03-23T12:41:52;2.28;;;1.20;;
31298;SDS011;17927;52.350;13.402;2024-03-23T12:44:20;5.20;;;1.65;;
31298;SDS011;17927;52.350;13.402;2024-03-23T12:46:45;10.13;;;2.25;;
31298;SDS011;17927;52.350;13.402;2024-03-23T12:49:11;4.45;;;1.20;;
31298;SDS011;17927;52.350;13.402;2024-03-23T12:51:36;3.40;;;1.45;;
31298;SDS011;17927;52.350;13.402;2024-03-23T12:54:02;5.13;;;1.30;;
31298;SDS011;17927;52.350;13.402;2024-03-23T12:56:27;2.67;;;1.23;;
31298;SDS011;17927;52.350;13.402;2024-03-23T12:58:55;6.30;;;1.70;;
31298;SDS011;17927;52.350;13.402;2024-03-23T13:01:22;6.18;;;2.72;;
31298;SDS011;17927;52.350;13.402;2024-03-23T13:03:50;4.88;;;1.90;;
31298;SDS011;17927;52.350;13.402;2024-03-23T13:06:16;5.68;;;1.60;;
31298;SDS011;17927;52.350;13.402;2024-03-23T13:08:46;6.53;;;1.40;;
31298;SDS011;17927;52.350;13.402;2024-03-23T13:11:11;2.47;;;1.38;;
31298;SDS011;17927;52.350;13.402;2024-03-23T13:13:38;3.63;;;1.10;;
31298;SDS011;17927;52.350;13.402;2024-03-23T13:16:04;5.82;;;1.77;;
31298;SDS011;17927;52.350;13.402;2024-03-23T13:18:30;4.68;;;1.30;;
31298;SDS011;17927;52.350;13.402;2024-03-23T13:20:56;3.78;;;1.10;;
31298;SDS011;17927;52.350;13.402;2024-03-23T13:23:21;4.32;;;1.20;;
31298;SDS011;17927;52.350;13.402;2024-03-23T13:25:54;2.58;;;1.00;;
31298;SDS011;17927;52.350;13.402;2024-03-23T13:28:20;6.53;;;1.88;;
31298;SDS011;17927;52.350;13.402;2024-03-23T13:30:56;4.55;;;1.30;;
31298;SDS011;17927;52.350;13.402;2024-03-23T13:33:29;3.85;;;1.63;;
31298;SDS011;17927;52.350;13.402;2024-03-23T13:35:57;8.48;;;2.00;;
31298;SDS011;17927;52.350;13.402;2024-03-23T13:38:23;9.05;;;2.25;;
31298;SDS011;17927;52.350;13.402;2024-03-23T13:40:56;5.88;;;1.88;;
31298;SDS011;17927;52.350;13.402;2024-03-23T13:43:22;3.45;;;1.38;;
31298;SDS011;17927;52.350;13.402;2024-03-23T13:45:48;6.13;;;1.77;;
31298;SDS011;17927;52.350;13.402;2024-03-23T13:48:20;5.93;;;1.70;;
31298;SDS011;17927;52.350;13.402;2024-03-23T13:50:46;6.53;;;2.20;;
31298;SDS011;17927;52.350;13.402;2024-03-23T13:53:13;7.03;;;2.25;;
31298;SDS011;17927;52.350;13.402;2024-03-23T13:55:45;6.97;;;1.35;;
31298;SDS011;17927;52.350;13.402;2024-03-23T13:58:11;8.55;;;2.10;;
31298;SDS011;17927;52.350;13.402;2024-03-23T14:00:37;5.88;;;1.60;;
31298;SDS011;17927;52.350;13.402;2024-03-23T14:03:02;6.40;;;2.03;;
31298;SDS011;17927;52.350;13.402;2024-03-23T14:05:27;6.13;;;2.13;;
31298;SDS011;17927;52.350;13.402;2024-03-23T14:07:53;5.88;;;2.38;;
31298;SDS011;17927;52.350;13.402;2024-03-23T14:10:18;8.10;;;1.77;;
31298;SDS011;17927;52.350;13.402;2024-03-23T14:12:43;7.10;;;1.70;;
31298;SDS011;17927;52.350;13.402;2024-03-23T14:15:08;8.65;;;2.00;;
31298;SDS011;17927;52.350;13.402;2024-03-23T14:17:34;8.32;;;2.28;;
31298;SDS011;17927;52.350;13.402;2024-03-23T14:19:59;8.00;;;2.85;;
31298;SDS011;17927;52.350;13.402;2024-03-23T14:22:26;6.10;;;2.00;;
31298;SDS011;17927;52.350;13.402;2024-03-23T14:24:52;8.10;;;2.17;;
31298;SDS011;17927;52.350;13.402;2024-03-23T14:27:18;7.15;;;2.25;;
31298;SDS011;17927;52.350;13.402;2024-03-23T14:29:45;9.88;;;2.95;;
31298;SDS011;17927;52.350;13.402;2024-03-23T14:32:11;5.63;;;2.03;;
31298;SDS011;17927;52.350;13.402;2024-03-23T14:34:36;5.43;;;2.55;;
31298;SDS011;17927;52.350;13.402;2024-03-23T14:37:01;10.05;;;3.17;;
31298;SDS011;17927;52.350;13.402;2024-03-23T14:39:27;9.50;;;2.63;;
31298;SDS011;17927;52.350;13.402;2024-03-23T14:41:52;8.27;;;2.60;;
31298;SDS011;17927;52.350;13.402;2024-03-23T14:44:17;8.35;;;2.40;;
31298;SDS011;17927;52.350;13.402;2024-03-23T14:46:42;8.95;;;2.60;;
31298;SDS011;17927;52.350;13.402;2024-03-23T14:49:08;6.03;;;1.90;;
31298;SDS011;17927;52.350;13.402;2024-03-23T14:51:33;3.63;;;2.15;;
31298;SDS011;17927;52.350;13.402;2024-03-23T14:53:58;5.32;;;2.65;;
31298;SDS011;17927;52.350;13.402;2024-03-23T14:56:24;7.10;;;3.00;;
31298;SDS011;17927;52.350;13.402;2024-03-23T14:58:52;3.83;;;2.22;;
31298;SDS011;17927;52.350;13.402;2024-03-23T15:01:18;3.92;;;1.50;;
31298;SDS011;17927;52.350;13.402;2024-03-23T15:03:44;2.35;;;1.25;;
31298;SDS011;17927;52.350;13.402;2024-03-23T15:06:09;5.57;;;1.33;;
31298;SDS011;17927;52.350;13.402;2024-03-23T15:08:34;7.30;;;1.55;;
31298;SDS011;17927;52.350;13.402;2024-03-23T15:11:01;5.38;;;1.40;;
31298;SDS011;17927;52.350;13.402;2024-03-23T15:15:58;4.38;;;1.40;;
31298;SDS011;17927;52.350;13.402;2024-03-23T15:18:23;5.53;;;1.02;;
31298;SDS011;17927;52.350;13.402;2024-03-23T15:20:52;3.30;;;1.10;;
31298;SDS011;17927;52.350;13.402;2024-03-23T15:23:22;4.57;;;1.33;;
31298;SDS011;17927;52.350;13.402;2024-03-23T15:25:54;4.45;;;1.13;;
31298;SDS011;17927;52.350;13.402;2024-03-23T15:28:23;2.50;;;1.13;;
31298;SDS011;17927;52.350;13.402;2024-03-23T15:30:51;1.65;;;0.90;;
31298;SDS011;17927;52.350;13.402;2024-03-23T15:33:16;3.65;;;1.02;;
31298;SDS011;17927;52.350;13.402;2024-03-23T15:35:42;3.10;;;1.23;;
31298;SDS011;17927;52.350;13.402;2024-03-23T15:38:07;4.50;;;1.10;;